Time;durP1;ratioP1;P1;durP2;ratioP2;P2;SDS_P1;SDS_P2;PMS_P1;PMS_P2;Temp;Humidity;BMP_temperature;BMP_pressure;BME280_temperature;BME280_humidity;BME280_pressure;Samples;Min_cycle;Max_cycle;Signal;HPM_P1;HPM_P2
2023/01/29 00:02:24;;;;;;;;;33.67;23.67;;;;;-1.98;94.09;99351.09;4913853;28;104174;-78
2023/01/29 00:04:52;;;;;;;;;34.67;26.67;;;;;-2.16;93.97;99348.88;4916419;28;102778;-77
2023/01/29 00:07:22;;;;;;;;;42.00;27.00;;;;;-2.13;94.27;99357.44;4911151;28;102200;-78
2023/01/29 00:09:49;;;;;;;;;27.00;26.33;;;;;-2.13;93.32;99351.31;4915518;28;102453;-77
2023/01/29 00:12:16;;;;;;;;;41.33;32.33;;;;;-2.16;94.21;99344.38;4912272;28;104015;-77
2023/01/29 00:14:43;;;;;;;;;31.67;27.67;;;;;-2.17;93.62;99355.09;4915381;28;102727;-76
2023/01/29 00:17:10;;;;;;;;;36.00;29.33;;;;;-2.28;93.28;99354.03;4913601;28;103175;-76
2023/01/29 00:19:37;;;;;;;;;39.00;24.00;;;;;-2.23;93.90;99359.00;4911986;28;102385;-77
2023/01/29 00:22:04;;;;;;;;;36.00;23.33;;;;;-2.22;93.37;99363.38;4912600;28;104150;-76
2023/01/29 00:24:31;;;;;;;;;36.67;24.67;;;;;-2.27;93.03;99346.94;4913548;28;102723;-76
2023/01/29 00:26:58;;;;;;;;;36.00;27.00;;;;;-2.31;91.57;99363.97;4914466;28;102379;-76
2023/01/29 00:29:25;;;;;;;;;26.67;20.67;;;;;-2.29;93.18;99367.34;4915528;28;102458;-77
2023/01/29 00:31:52;;;;;;;;;36.33;27.00;;;;;-2.33;92.12;99357.91;4916220;28;104029;-71
2023/01/29 00:34:20;;;;;;;;;36.00;26.00;;;;;-2.28;91.28;99363.75;4910315;28;102773;-72
2023/01/29 00:36:47;;;;;;;;;26.00;21.00;;;;;-2.20;90.63;99361.44;4913173;28;102241;-72
2023/01/29 00:39:14;;;;;;;;;30.33;23.33;;;;;-2.21;89.53;99370.38;4915892;28;102256;-72
2023/01/29 00:50:11;;;;;;;;;28.67;20.00;;;;;-2.15;86.61;99375.22;4880139;28;102494;-72
2023/01/29 00:52:41;;;;;;;;;27.33;20.67;;;;;-2.08;88.30;99373.88;4914100;28;104028;-72
2023/01/29 00:55:09;;;;;;;;;28.00;20.67;;;;;-2.06;86.22;99377.28;4929741;28;102355;-71
2023/01/29 00:57:37;;;;;;;;;28.67;21.67;;;;;-2.10;83.94;99381.06;4915667;28;102306;-73
2023/01/29 01:00:06;;;;;;;;;20.00;14.67;;;;;-2.26;84.54;99369.81;4917783;28;102293;-72
2023/01/29 01:05:19;;;;;;;;;24.33;21.00;;;;;-2.15;84.67;99369.94;4916498;28;103588;-72
2023/01/29 01:07:49;;;;;;;;;17.00;16.00;;;;;-2.16;83.78;99373.53;4917314;28;102339;-71
2023/01/29 01:10:23;;;;;;;;;21.67;20.00;;;;;-2.20;84.17;99376.47;4919571;28;102264;-72
2023/01/29 01:12:54;;;;;;;;;25.00;20.00;;;;;-2.21;85.39;99380.97;4915608;28;104085;-72
2023/01/29 01:15:23;;;;;;;;;23.33;20.00;;;;;-2.17;85.80;99390.41;4916898;28;102382;-72
2023/01/29 01:17:56;;;;;;;;;24.67;18.67;;;;;-2.13;86.44;99389.25;4913962;28;102244;-71
2023/01/29 01:20:25;;;;;;;;;27.33;19.67;;;;;-2.16;86.06;99378.81;4916721;28;102176;-77
2023/01/29 01:22:55;;;;;;;;;27.00;21.33;;;;;-2.21;86.25;99394.19;4918923;28;104192;-77
2023/01/29 01:25:24;;;;;;;;;24.33;20.00;;;;;-2.36;85.43;99392.56;4918908;28;102611;-77
2023/01/29 01:27:52;;;;;;;;;24.67;20.33;;;;;-2.36;85.46;99388.13;4911872;28;101979;-77
2023/01/29 01:30:19;;;;;;;;;33.33;20.00;;;;;-2.42;85.46;99379.72;4918839;28;104145;-77
2023/01/29 01:32:46;;;;;;;;;22.67;19.33;;;;;-2.51;84.34;99375.00;4918182;28;104025;-76
2023/01/29 01:35:13;;;;;;;;;27.00;17.67;;;;;-2.50;85.05;99377.56;4917679;28;103361;-76
2023/01/29 01:37:41;;;;;;;;;21.00;17.00;;;;;-2.49;84.68;99381.06;4916042;28;102000;-75
2023/01/29 01:40:16;;;;;;;;;28.00;20.33;;;;;-2.52;85.75;99376.00;4919288;28;102223;-75
2023/01/29 01:42:56;;;;;;;;;32.33;18.67;;;;;-2.52;85.08;99371.50;4913434;28;108860;-75
2023/01/29 01:45:35;;;;;;;;;19.00;14.00;;;;;-2.45;85.72;99371.97;4910082;28;102695;-76
2023/01/29 01:48:05;;;;;;;;;16.00;13.00;;;;;-2.34;86.07;99364.16;4917920;28;102762;-75
2023/01/29 01:50:35;;;;;;;;;17.00;15.00;;;;;-2.39;85.44;99366.28;4920052;28;102336;-77
2023/01/29 01:53:14;;;;;;;;;23.67;18.33;;;;;-2.30;83.12;99365.69;4914618;28;103880;-76
2023/01/29 01:55:47;;;;;;;;;16.33;14.67;;;;;-2.26;83.84;99357.44;4914476;28;102177;-75
2023/01/29 01:58:40;;;;;;;;;21.00;17.33;;;;;-2.32;85.17;99354.31;4917790;28;102041;-76
2023/01/29 02:01:08;;;;;;;;;18.67;15.33;;;;;-2.33;84.73;99352.63;4913856;28;102205;-75
2023/01/29 02:09:40;;;;;;;;;16.67;16.00;;;;;-2.44;85.31;99347.22;4905522;28;102336;-76
2023/01/29 02:12:30;;;;;;;;;14.33;11.33;;;;;-2.35;84.87;99336.00;4908731;28;102945;-75
2023/01/29 02:15:26;;;;;;;;;10.33;7.67;;;;;-2.29;85.05;99335.56;4913843;28;107933;-76
2023/01/29 02:18:10;;;;;;;;;17.00;15.67;;;;;-2.41;84.92;99342.53;4915089;28;102208;-76
2023/01/29 02:21:11;;;;;;;;;18.33;12.33;;;;;-2.52;85.98;99349.53;4907442;28;102291;-76
2023/01/29 02:24:29;;;;;;;;;24.00;19.33;;;;;-2.63;85.79;99342.28;4910523;28;103087;-76
2023/01/29 02:27:15;;;;;;;;;23.00;19.00;;;;;-2.61;86.08;99329.75;4911162;28;108605;-76
2023/01/29 02:29:58;;;;;;;;;30.33;23.33;;;;;-2.75;85.95;99332.50;4912969;28;102086;-75
2023/01/29 02:32:27;;;;;;;;;19.67;17.00;;;;;-2.51;84.35;99340.59;4912307;28;102200;-76
2023/01/29 02:35:41;;;;;;;;;26.67;23.33;;;;;-2.76;86.53;99331.63;4917614;28;102416;-76
2023/01/29 02:38:35;;;;;;;;;32.00;20.67;;;;;-2.65;84.56;99327.41;4894337;28;110958;-75
2023/01/29 02:41:33;;;;;;;;;15.00;11.67;;;;;-2.88;85.31;99327.13;4915605;28;103633;-76
2023/01/29 02:44:27;;;;;;;;;17.00;14.00;;;;;-2.83;85.65;99319.75;4900367;28;102154;-75
2023/01/29 02:47:07;;;;;;;;;13.67;12.33;;;;;-2.76;85.66;99326.34;4909914;28;102752;-75
2023/01/29 02:49:48;;;;;;;;;16.00;14.00;;;;;-2.85;84.60;99326.94;4913012;28;104015;-74
2023/01/29 02:52:33;;;;;;;;;19.33;17.00;;;;;-2.92;84.94;99336.22;4911306;28;102187;-75
2023/01/29 02:55:11;;;;;;;;;14.67;13.00;;;;;-2.91;84.44;99343.22;4915870;28;102255;-75
2023/01/29 02:57:43;;;;;;;;;20.33;16.67;;;;;-2.90;84.31;99346.69;4908611;28;102141;-75
2023/01/29 03:00:13;;;;;;;;;29.33;20.33;;;;;-2.93;84.18;99354.84;4915307;28;108824;-73
2023/01/29 03:02:46;;;;;;;;;20.00;16.00;;;;;-2.95;84.05;99357.59;4909570;28;102186;-73
2023/01/29 03:05:24;;;;;;;;;23.33;18.33;;;;;-3.04;83.07;99363.47;4914522;28;101985;-74
2023/01/29 03:08:00;;;;;;;;;8.33;6.00;;;;;-2.92;82.69;99356.53;4915260;28;103759;-75
2023/01/29 03:10:34;;;;;;;;;16.33;16.00;;;;;-3.01;84.58;99349.16;4911816;28;103901;-75
2023/01/29 03:13:11;;;;;;;;;12.33;10.00;;;;;-3.03;83.44;99354.59;4912727;28;103785;-75
2023/01/29 03:15:46;;;;;;;;;18.33;14.33;;;;;-2.97;83.26;99366.56;4908635;28;102103;-74
2023/01/29 03:18:21;;;;;;;;;13.00;11.00;;;;;-2.95;82.77;99359.38;4911609;28;102431;-75
2023/01/29 03:20:57;;;;;;;;;19.33;16.00;;;;;-3.10;82.63;99373.56;4897638;28;104241;-75
2023/01/29 03:32:05;;;;;;;;;14.33;11.67;;;;;-3.15;82.38;99368.56;4912195;28;108706;-76
2023/01/29 03:34:40;;;;;;;;;20.67;17.00;;;;;-3.16;82.66;99374.81;4917195;28;102219;-76
2023/01/29 03:37:17;;;;;;;;;16.33;12.33;;;;;-3.02;81.18;99382.75;4910121;28;102062;-77
2023/01/29 03:39:44;;;;;;;;;18.00;13.67;;;;;-3.08;81.71;99371.69;4909131;28;102029;-75
2023/01/29 03:42:17;;;;;;;;;12.67;11.00;;;;;-3.01;81.29;99372.97;4915051;28;104042;-76
2023/01/29 03:45:00;;;;;;;;;16.33;13.33;;;;;-2.99;80.30;99371.94;4915335;28;102494;-76
2023/01/29 03:47:50;;;;;;;;;11.33;10.00;;;;;-2.95;79.36;99367.31;4906731;28;102314;-75
2023/01/29 03:50:49;;;;;;;;;10.67;10.00;;;;;-2.89;78.55;99361.63;4913687;28;102647;-76
2023/01/29 03:53:25;;;;;;;;;11.00;10.00;;;;;-2.85;79.72;99360.50;4910788;28;111014;-75
2023/01/29 03:56:01;;;;;;;;;14.00;12.33;;;;;-2.95;77.92;99367.31;4914590;28;103070;-76
2023/01/29 03:58:41;;;;;;;;;15.33;10.00;;;;;-2.90;78.45;99349.34;4917251;28;102193;-76
2023/01/29 04:01:36;;;;;;;;;14.67;11.00;;;;;-2.93;78.41;99344.25;4915083;28;101976;-75
2023/01/29 04:04:15;;;;;;;;;16.67;13.00;;;;;-2.86;78.44;99337.63;4915575;28;108882;-75
2023/01/29 04:06:46;;;;;;;;;11.33;9.33;;;;;-2.78;76.79;99340.59;4910368;28;102320;-75
2023/01/29 04:09:15;;;;;;;;;14.33;13.00;;;;;-3.05;77.68;99327.38;4913930;28;102384;-75
2023/01/29 04:11:49;;;;;;;;;16.67;16.00;;;;;-2.94;77.09;99354.00;4916038;28;102140;-76
2023/01/29 04:14:17;;;;;;;;;24.33;19.00;;;;;-3.08;78.21;99356.66;4914455;28;104562;-75
2023/01/29 04:16:50;;;;;;;;;16.67;14.00;;;;;-3.18;75.61;99337.03;4914126;28;102337;-76
2023/01/29 04:19:17;;;;;;;;;15.33;13.00;;;;;-3.12;75.94;99355.16;4915034;28;102329;-75
2023/01/29 04:21:47;;;;;;;;;14.33;11.67;;;;;-3.07;75.01;99346.94;4915900;28;103179;-76
2023/01/29 04:24:15;;;;;;;;;10.67;10.67;;;;;-3.09;76.00;99328.50;4913839;28;103441;-75
2023/01/29 04:26:45;;;;;;;;;13.67;10.67;;;;;-2.97;73.95;99326.91;4913089;28;104538;-75
2023/01/29 04:29:52;;;;;;;;;15.33;11.33;;;;;-3.01;74.86;99318.28;4913498;28;102121;-76
2023/01/29 04:32:38;;;;;;;;;9.00;4.00;;;;;-2.95;74.35;99315.25;4909846;28;102112;-77
2023/01/29 04:35:14;;;;;;;;;11.00;6.33;;;;;-2.89;75.16;99311.38;4912953;28;104056;-77
2023/01/29 04:37:55;;;;;;;;;16.67;11.67;;;;;-3.06;73.09;99304.50;4909750;28;109842;-74
2023/01/29 04:40:43;;;;;;;;;16.67;13.00;;;;;-3.08;72.66;99302.91;4906162;28;102687;-76
2023/01/29 04:43:26;;;;;;;;;13.00;8.00;;;;;-3.06;72.66;99291.28;4908551;28;102162;-76
2023/01/29 04:46:14;;;;;;;;;14.33;11.33;;;;;-3.44;71.92;99234.72;4904146;28;108412;-77
2023/01/29 04:49:04;;;;;;;;;9.00;9.00;;;;;-3.07;71.97;99288.75;4908031;28;102249;-74
2023/01/29 04:51:48;;;;;;;;;7.67;7.00;;;;;-3.05;72.99;99285.03;4908219;28;103598;-77
2023/01/29 04:54:21;;;;;;;;;5.67;2.67;;;;;-3.01;72.88;99281.25;4910889;28;102290;-76
2023/01/29 04:57:33;;;;;;;;;8.33;7.67;;;;;-3.07;72.19;99279.03;4915329;28;104151;-76
2023/01/29 05:00:17;;;;;;;;;10.00;10.00;;;;;-3.22;71.24;99293.22;4905616;28;102148;-77
2023/01/29 05:02:46;;;;;;;;;12.33;10.67;;;;;-3.17;72.12;99293.78;4910243;28;102036;-77
2023/01/29 05:05:17;;;;;;;;;7.00;5.00;;;;;-3.10;72.09;99281.84;4913855;28;103417;-75
2023/01/29 05:07:46;;;;;;;;;8.67;7.33;;;;;-3.07;71.45;99294.88;4912292;28;103996;-75
2023/01/29 05:10:17;;;;;;;;;7.00;5.33;;;;;-3.10;72.58;99295.06;4905439;28;102333;-75
2023/01/29 05:12:55;;;;;;;;;6.33;4.67;;;;;-2.97;72.39;99298.63;4907473;28;102178;-76
2023/01/29 05:15:28;;;;;;;;;2.67;1.67;;;;;-2.90;71.88;99293.78;4913166;28;102105;-76
2023/01/29 05:18:00;;;;;;;;;4.00;2.00;;;;;-2.89;71.70;99299.00;4912771;28;104109;-76
2023/01/29 05:20:32;;;;;;;;;5.00;4.00;;;;;-2.96;71.32;99297.69;4913395;28;102032;-76
2023/01/29 05:22:59;;;;;;;;;6.00;6.00;;;;;-2.91;72.28;99300.88;4914217;28;102458;-75
2023/01/29 05:25:29;;;;;;;;;13.67;13.00;;;;;-3.05;72.96;99298.28;4913433;28;102257;-76
2023/01/29 05:30:44;;;;;;;;;13.00;10.00;;;;;-3.03;74.29;99314.91;4898949;28;102253;-75
2023/01/29 05:33:17;;;;;;;;;16.67;13.67;;;;;-3.09;72.16;99314.44;4915000;28;102326;-75
2023/01/29 05:35:45;;;;;;;;;16.00;9.33;;;;;-3.15;73.26;99302.44;4910423;28;102082;-75
2023/01/29 05:38:13;;;;;;;;;14.67;11.67;;;;;-3.22;72.38;99317.88;4912875;28;104042;-75
2023/01/29 05:40:40;;;;;;;;;13.00;11.00;;;;;-3.31;72.20;99307.03;4910631;28;102146;-77
2023/01/29 05:43:19;;;;;;;;;16.00;10.67;;;;;-3.32;72.78;99292.09;4910814;28;101975;-76
2023/01/29 05:45:57;;;;;;;;;13.33;11.67;;;;;-3.20;74.01;99300.09;4912763;28;101850;-76
2023/01/29 05:48:27;;;;;;;;;8.33;7.00;;;;;-3.20;74.32;99301.91;4914859;28;104118;-76
2023/01/29 05:51:00;;;;;;;;;12.33;8.00;;;;;-3.16;73.74;99300.78;4919026;28;102767;-76
2023/01/29 05:53:30;;;;;;;;;6.67;5.67;;;;;-3.18;74.13;99303.50;4917298;28;102302;-76
2023/01/29 05:56:00;;;;;;;;;6.33;5.00;;;;;-3.22;74.07;99296.72;4912128;28;102674;-75
2023/01/29 05:58:28;;;;;;;;;4.67;4.00;;;;;-3.13;74.72;99303.22;4915135;28;104183;-75
2023/01/29 06:00:55;;;;;;;;;2.00;2.00;;;;;-3.00;75.23;99312.06;4915179;28;102272;-76
2023/01/29 06:03:22;;;;;;;;;10.00;8.00;;;;;-3.01;75.05;99310.34;4915877;28;101916;-76
2023/01/29 06:05:49;;;;;;;;;12.00;9.00;;;;;-3.12;73.96;99299.63;4917769;28;102228;-75
2023/01/29 06:08:16;;;;;;;;;14.67;11.67;;;;;-3.13;74.57;99319.06;4917344;28;106096;-75
2023/01/29 06:10:43;;;;;;;;;13.67;11.00;;;;;-3.08;75.66;99321.44;4917627;28;102185;-75
2023/01/29 06:13:10;;;;;;;;;9.33;7.00;;;;;-2.98;75.22;99325.19;4911858;28;102313;-76
2023/01/29 06:15:39;;;;;;;;;7.67;6.33;;;;;-2.97;74.87;99317.13;4915352;28;102039;-76
2023/01/29 06:18:07;;;;;;;;;10.33;7.33;;;;;-2.96;74.10;99318.84;4914896;28;111422;-75
2023/01/29 06:20:34;;;;;;;;;7.00;5.00;;;;;-2.87;74.61;99323.53;4914797;28;102519;-76
2023/01/29 06:23:01;;;;;;;;;7.00;5.00;;;;;-2.81;74.98;99327.59;4912001;28;102313;-76
2023/01/29 06:25:28;;;;;;;;;4.00;2.67;;;;;-2.81;75.14;99323.16;4915332;28;103083;-75
2023/01/29 06:27:55;;;;;;;;;4.00;2.33;;;;;-2.76;75.08;99334.28;4914259;28;104197;-76
2023/01/29 06:30:25;;;;;;;;;4.00;2.00;;;;;-2.70;74.75;99336.50;4915107;28;102600;-75
2023/01/29 06:32:55;;;;;;;;;1.00;1.00;;;;;-2.70;74.95;99336.50;4915578;28;102140;-76
2023/01/29 06:35:22;;;;;;;;;0.00;0.00;;;;;-2.65;76.12;99338.00;4917605;28;103185;-71
2023/01/29 06:37:49;;;;;;;;;1.00;1.00;;;;;-2.64;75.89;99337.06;4916485;28;104019;-71
2023/01/29 06:40:16;;;;;;;;;1.00;0.00;;;;;-2.59;74.02;99334.97;4917047;28;102386;-71
2023/01/29 06:42:43;;;;;;;;;1.00;0.00;;;;;-2.56;73.91;99326.81;4917517;28;101861;-71
2023/01/29 06:45:11;;;;;;;;;1.67;1.00;;;;;-2.55;75.96;99328.53;4920319;28;104403;-72
2023/01/29 06:47:38;;;;;;;;;4.33;3.33;;;;;-2.56;74.76;99313.56;4918360;28;103464;-71
2023/01/29 06:50:05;;;;;;;;;1.00;1.00;;;;;-2.54;75.53;99317.00;4913010;28;102190;-71
2023/01/29 06:52:32;;;;;;;;;0.33;0.00;;;;;-2.48;73.72;99320.09;4912181;28;101974;-71
2023/01/29 06:54:59;;;;;;;;;1.00;0.00;;;;;-2.46;74.04;99312.88;4912361;28;102703;-71
2023/01/29 06:57:28;;;;;;;;;1.33;0.00;;;;;-2.43;75.46;99317.97;4913398;28;103946;-70
2023/01/29 06:59:55;;;;;;;;;2.00;1.00;;;;;-2.42;74.95;99321.47;4914727;28;102542;-70
2023/01/29 07:02:22;;;;;;;;;0.33;0.00;;;;;-2.41;74.20;99318.72;4909511;28;102136;-71
2023/01/29 07:04:49;;;;;;;;;0.67;0.67;;;;;-2.40;73.95;99322.22;4916712;28;102118;-71
2023/01/29 07:07:17;;;;;;;;;1.00;0.00;;;;;-2.36;74.42;99318.41;4912820;28;110389;-71
2023/01/29 07:09:44;;;;;;;;;1.00;1.00;;;;;-2.67;73.61;99263.16;4917041;28;102183;-71
2023/01/29 07:12:11;;;;;;;;;0.00;0.00;;;;;-2.30;73.86;99326.78;4913551;28;102371;-71
2023/01/29 07:14:38;;;;;;;;;2.67;1.00;;;;;-2.26;74.78;99330.09;4918509;28;102230;-71
2023/01/29 07:17:04;;;;;;;;;0.00;0.00;;;;;-2.23;74.52;99327.22;4912328;28;104155;-70
2023/01/29 07:19:31;;;;;;;;;1.00;0.00;;;;;-2.17;74.68;99325.97;4909053;28;104189;-71
2023/01/29 07:22:01;;;;;;;;;1.00;0.00;;;;;-2.12;73.30;99330.00;4914835;28;102097;-70
2023/01/29 07:24:28;;;;;;;;;0.33;0.00;;;;;-2.07;74.29;99332.34;4915920;28;102311;-70
2023/01/29 07:26:55;;;;;;;;;0.00;0.00;;;;;-2.01;73.72;99330.13;4915641;28;104134;-70
2023/01/29 07:29:22;;;;;;;;;0.00;0.00;;;;;-1.94;72.87;99339.38;4915189;28;102320;-71
2023/01/29 07:31:49;;;;;;;;;2.00;1.00;;;;;-1.93;72.97;99338.38;4914510;28;102285;-71
2023/01/29 07:34:17;;;;;;;;;1.00;1.00;;;;;-1.89;73.13;99337.22;4917234;28;102237;-70
2023/01/29 07:36:43;;;;;;;;;2.00;2.00;;;;;-1.86;72.54;99334.38;4913498;28;103987;-71
2023/01/29 07:39:10;;;;;;;;;4.33;2.67;;;;;-1.85;72.41;99341.34;4917092;28;102165;-71
2023/01/29 07:41:37;;;;;;;;;4.00;4.00;;;;;-1.82;71.79;99341.16;4915162;28;102207;-71
2023/01/29 07:44:04;;;;;;;;;10.00;4.33;;;;;-1.82;72.01;99343.81;4913377;28;103384;-71
2023/01/29 07:46:31;;;;;;;;;5.00;2.67;;;;;-1.76;72.73;99344.34;4909546;28;104013;-72
2023/01/29 07:48:58;;;;;;;;;4.00;4.00;;;;;-1.73;73.31;99342.34;4909808;28;102410;-70
2023/01/29 07:51:25;;;;;;;;;5.00;5.00;;;;;-1.80;72.55;99344.53;4914356;28;102257;-71
2023/01/29 07:53:52;;;;;;;;;15.00;14.67;;;;;-2.28;75.83;99294.91;4910344;28;104364;-75
2023/01/29 07:56:19;;;;;;;;;16.00;11.00;;;;;-2.73;76.43;99236.16;4908044;28;104391;-75
2023/01/29 07:58:46;;;;;;;;;14.00;11.67;;;;;-2.55;77.28;99275.56;4910765;28;102201;-76
2023/01/29 08:01:13;;;;;;;;;22.00;17.33;;;;;-3.05;79.01;99270.97;4911106;28;102085;-75
2023/01/29 08:03:40;;;;;;;;;14.33;11.00;;;;;-2.94;81.04;99301.09;4915106;28;102037;-75
2023/01/29 08:06:08;;;;;;;;;16.33;14.00;;;;;-3.15;80.97;99260.97;4927671;28;108805;-76
2023/01/29 08:08:35;;;;;;;;;18.67;15.00;;;;;-2.94;82.98;99345.19;4912217;28;102560;-75
2023/01/29 08:11:04;;;;;;;;;18.00;17.00;;;;;-2.70;84.06;99378.84;4905927;28;102422;-75
2023/01/29 08:13:32;;;;;;;;;16.33;15.00;;;;;-2.76;86.11;99383.72;4927179;28;102336;-75
2023/01/29 08:16:01;;;;;;;;;23.67;20.33;;;;;-3.32;86.28;99337.03;4901133;28;104103;-76
2023/01/29 08:18:30;;;;;;;;;11.00;9.33;;;;;-3.04;86.80;99355.53;4907532;28;102208;-76
2023/01/29 08:21:01;;;;;;;;;19.33;12.33;;;;;-2.61;85.25;99387.19;4910046;28;102186;-76
2023/01/29 08:23:28;;;;;;;;;9.33;7.67;;;;;-2.47;85.89;99381.81;4914101;28;102485;-77
2023/01/29 08:25:55;;;;;;;;;15.67;15.67;;;;;-2.50;84.16;99374.06;4926032;28;102798;-76
2023/01/29 08:28:23;;;;;;;;;17.67;15.33;;;;;-2.72;86.46;99349.00;4909196;28;104768;-76
2023/01/29 08:30:50;;;;;;;;;12.33;10.00;;;;;-2.60;85.55;99343.84;4916541;28;102305;-77
2023/01/29 08:33:17;;;;;;;;;18.00;17.00;;;;;-2.72;85.96;99332.28;4910790;28;102655;-76
2023/01/29 08:35:52;;;;;;;;;13.33;11.00;;;;;-2.59;84.71;99330.53;4908350;28;104430;-77
2023/01/29 08:38:19;;;;;;;;;19.00;17.67;;;;;-2.71;85.33;99324.25;4911790;28;102567;-77
2023/01/29 08:40:46;;;;;;;;;31.00;26.00;;;;;-3.12;86.14;99312.84;4906302;28;102228;-75
2023/01/29 08:43:13;;;;;;;;;28.67;23.67;;;;;-2.95;88.22;99324.97;4915216;28;102088;-76
2023/01/29 08:45:42;;;;;;;;;26.00;20.67;;;;;-2.58;86.60;99389.63;4911196;28;108685;-76
2023/01/29 08:48:10;;;;;;;;;32.00;25.33;;;;;-2.74;87.98;99393.25;4912589;28;102169;-76
2023/01/29 08:50:37;;;;;;;;;32.33;30.33;;;;;-2.75;87.43;99388.88;4909030;28;102556;-75
2023/01/29 08:53:08;;;;;;;;;20.00;18.33;;;;;-2.90;87.85;99355.50;4913637;28;102045;-75
2023/01/29 08:55:36;;;;;;;;;41.67;26.67;;;;;-3.19;86.21;99322.09;4912753;28;105476;-75
2023/01/29 08:58:05;;;;;;;;;37.33;30.33;;;;;-3.26;84.72;99342.81;4911563;28;102441;-75
2023/01/29 09:00:33;;;;;;;;;29.00;25.33;;;;;-3.07;83.56;99325.78;4912239;28;102135;-76
2023/01/29 09:03:00;;;;;;;;;30.67;22.67;;;;;-3.09;82.57;99341.72;4913667;28;101921;-76
2023/01/29 09:05:27;;;;;;;;;23.67;21.33;;;;;-2.80;81.48;99383.06;4912217;28;104203;-76
2023/01/29 09:07:57;;;;;;;;;26.67;22.33;;;;;-2.84;80.91;99378.94;4911605;28;102428;-76
2023/01/29 09:10:25;;;;;;;;;23.00;17.00;;;;;-2.95;81.03;99336.41;4910740;28;101948;-75
2023/01/29 09:12:52;;;;;;;;;20.00;17.00;;;;;-2.67;79.84;99367.25;4912184;28;102570;-74
2023/01/29 09:15:19;;;;;;;;;27.33;25.00;;;;;-3.02;78.42;99306.03;4921985;28;104065;-76
2023/01/29 09:17:48;;;;;;;;;25.67;21.00;;;;;-2.60;77.98;99365.03;4909056;28;102933;-75
2023/01/29 09:20:16;;;;;;;;;33.33;25.33;;;;;-3.03;78.34;99301.69;4904819;28;102279;-75
2023/01/29 09:22:43;;;;;;;;;37.67;30.33;;;;;-2.90;77.17;99307.88;4913403;28;102244;-76
2023/01/29 09:25:10;;;;;;;;;27.00;20.67;;;;;-2.66;78.13;99346.91;4908708;28;113020;-76
2023/01/29 09:27:37;;;;;;;;;33.00;23.00;;;;;-2.63;77.48;99350.22;4914607;28;102445;-75
2023/01/29 09:30:05;;;;;;;;;36.67;25.33;;;;;-2.53;76.98;99300.16;4927592;28;102560;-75
2023/01/29 09:32:35;;;;;;;;;27.67;18.33;;;;;-2.34;75.94;99308.53;4915111;28;103508;-75
2023/01/29 09:35:23;;;;;;;;;17.33;14.00;;;;;-1.62;75.47;99357.50;4909941;28;108460;-75
2023/01/29 09:37:50;;;;;;;;;14.33;12.33;;;;;-1.45;73.92;99349.22;4913130;28;102705;-75
2023/01/29 09:40:25;;;;;;;;;15.67;12.00;;;;;-1.39;72.02;99351.41;4911123;28;102177;-75
2023/01/29 09:43:19;;;;;;;;;22.67;18.00;;;;;-2.01;73.72;99361.91;4913358;28;102319;-74
2023/01/29 09:45:57;;;;;;;;;22.00;17.00;;;;;-2.11;73.79;99350.22;4910977;28;109636;-76
2023/01/29 09:48:27;;;;;;;;;21.33;15.67;;;;;-2.00;75.05;99350.38;4913673;28;102532;-76
2023/01/29 09:50:59;;;;;;;;;22.67;17.00;;;;;-2.03;73.87;99321.44;4908076;28;102197;-75
2023/01/29 09:53:44;;;;;;;;;17.33;14.33;;;;;-1.91;72.43;99325.91;4912909;28;102229;-75
2023/01/29 09:56:19;;;;;;;;;20.67;17.00;;;;;-1.87;72.21;99345.94;4913552;28;108565;-75
2023/01/29 09:58:46;;;;;;;;;20.67;17.33;;;;;-2.81;74.35;99262.28;4911851;28;102458;-75
2023/01/29 10:01:56;;;;;;;;;21.67;15.67;;;;;-2.04;74.74;99346.22;4915114;28;102483;-74
2023/01/29 10:04:23;;;;;;;;;12.67;11.00;;;;;-1.86;72.47;99333.53;4913105;28;102398;-75
2023/01/29 10:07:10;;;;;;;;;24.33;20.67;;;;;-2.11;72.53;99339.63;4927154;28;103215;-75
2023/01/29 10:09:56;;;;;;;;;25.67;18.00;;;;;-2.03;74.15;99336.50;4906262;28;102424;-76
2023/01/29 10:12:29;;;;;;;;;11.67;11.00;;;;;-1.83;73.31;99328.00;4911782;28;103813;-75
2023/01/29 10:15:04;;;;;;;;;14.67;14.33;;;;;-1.77;74.42;99313.50;4918186;28;102416;-76
2023/01/29 10:17:41;;;;;;;;;18.00;14.33;;;;;-1.80;71.69;99306.59;4918801;28;104054;-76
2023/01/29 10:20:25;;;;;;;;;15.67;14.00;;;;;-1.81;69.86;99302.25;4899722;28;102486;-75
2023/01/29 10:23:15;;;;;;;;;20.67;14.00;;;;;-1.96;71.78;99305.97;4915439;28;101963;-75
2023/01/29 10:25:45;;;;;;;;;18.00;17.00;;;;;-1.93;72.06;99303.94;4915191;28;102412;-76
2023/01/29 10:28:17;;;;;;;;;18.33;14.00;;;;;-1.80;72.84;99302.13;4915714;28;108495;-76
2023/01/29 10:30:57;;;;;;;;;12.67;11.67;;;;;-1.66;71.72;99293.22;4916607;28;102617;-76
2023/01/29 10:33:39;;;;;;;;;24.67;21.00;;;;;-1.72;72.41;99284.88;4917547;28;102115;-75
2023/01/29 10:36:33;;;;;;;;;20.33;13.33;;;;;-1.65;70.30;99283.47;4914975;28;102471;-76
2023/01/29 10:39:00;;;;;;;;;21.00;18.00;;;;;-1.82;69.56;99255.50;4916252;28;103992;-75
2023/01/29 10:41:48;;;;;;;;;20.67;16.33;;;;;-1.60;69.88;99260.97;4917810;28;102294;-75
2023/01/29 10:44:48;;;;;;;;;21.33;17.00;;;;;-1.84;68.36;99252.09;4916371;28;102528;-75
2023/01/29 10:47:40;;;;;;;;;16.33;11.00;;;;;-1.67;68.53;99245.63;4912248;28;102362;-75
2023/01/29 10:50:32;;;;;;;;;14.00;10.33;;;;;-1.53;68.24;99230.41;4915728;28;108746;-75
2023/01/29 10:53:20;;;;;;;;;16.00;14.00;;;;;-1.57;66.96;99233.38;4915855;28;102331;-76
2023/01/29 10:56:16;;;;;;;;;16.00;15.00;;;;;-1.41;66.44;99223.41;4913503;28;102698;-76
2023/01/29 10:58:58;;;;;;;;;12.67;11.00;;;;;-1.38;67.02;99212.56;4913290;28;102233;-76
2023/01/29 11:01:25;;;;;;;;;21.67;16.67;;;;;-1.97;68.48;99222.97;4910735;28;103948;-76
2023/01/29 11:04:00;;;;;;;;;16.33;14.67;;;;;-1.81;67.78;99204.19;4918721;28;102304;-75
2023/01/29 11:06:31;;;;;;;;;15.00;12.67;;;;;-1.56;67.93;99205.94;4916126;28;102131;-76
2023/01/29 11:09:28;;;;;;;;;15.67;13.67;;;;;-1.46;68.55;99193.72;4918801;28;102377;-76
2023/01/29 11:12:17;;;;;;;;;26.33;20.00;;;;;-1.54;67.61;99196.06;4915360;28;108574;-76
2023/01/29 11:14:54;;;;;;;;;18.00;16.33;;;;;-1.19;66.87;99186.38;4908516;28;102498;-75
2023/01/29 11:17:23;;;;;;;;;20.33;17.67;;;;;-1.19;66.85;99185.53;4914634;28;103663;-75
2023/01/29 11:19:54;;;;;;;;;20.33;14.00;;;;;-1.21;65.33;99182.97;4916630;28;102432;-75
2023/01/29 11:22:26;;;;;;;;;12.00;11.33;;;;;-1.33;66.75;99167.97;4914847;28;104034;-75
2023/01/29 11:25:08;;;;;;;;;17.00;13.67;;;;;-1.43;67.60;99166.94;4916140;28;102641;-76
2023/01/29 11:27:51;;;;;;;;;21.00;15.00;;;;;-1.62;67.93;99154.19;4916332;28;102281;-75
2023/01/29 11:30:25;;;;;;;;;25.33;21.33;;;;;-1.78;69.68;99153.59;4913462;28;102358;-76
2023/01/29 11:33:24;;;;;;;;;19.33;18.00;;;;;-1.46;69.52;99146.81;4912069;28;104153;-76
2023/01/29 11:35:52;;;;;;;;;16.33;15.67;;;;;-1.23;68.18;99146.94;4906123;28;102306;-76
2023/01/29 11:38:23;;;;;;;;;18.67;15.00;;;;;-1.38;69.18;99154.19;4916574;28;102085;-76
2023/01/29 11:40:51;;;;;;;;;15.00;12.00;;;;;-1.35;67.81;99141.56;4916120;28;101966;-76
2023/01/29 11:43:31;;;;;;;;;30.67;23.33;;;;;-1.69;67.43;99160.91;4916061;28;104314;-75
2023/01/29 11:46:06;;;;;;;;;18.00;17.00;;;;;-1.41;65.37;99150.00;4906680;28;102314;-76
2023/01/29 11:48:44;;;;;;;;;18.67;16.33;;;;;-1.32;66.88;99143.16;4912645;28;102338;-76
2023/01/29 11:51:22;;;;;;;;;22.67;15.00;;;;;-1.26;66.67;99150.63;4917620;28;102387;-77
2023/01/29 11:53:54;;;;;;;;;16.33;15.00;;;;;-1.15;65.64;99148.06;4908812;28;108540;-77
2023/01/29 11:56:29;;;;;;;;;17.33;15.33;;;;;-1.11;67.18;99144.19;4915121;28;102340;-77
2023/01/29 11:58:57;;;;;;;;;20.00;18.67;;;;;-1.23;64.94;99147.78;4915484;28;101999;-76
2023/01/29 12:01:40;;;;;;;;;19.00;16.33;;;;;-1.03;65.15;99147.13;4916185;28;102158;-77
2023/01/29 12:04:18;;;;;;;;;29.67;23.00;;;;;-1.08;66.42;99146.63;4913298;28;103924;-77
2023/01/29 12:06:50;;;;;;;;;25.33;16.67;;;;;-0.88;66.60;99149.59;4908908;28;103056;-77
2023/01/29 12:09:26;;;;;;;;;19.67;17.67;;;;;-0.88;65.92;99152.25;4911213;28;102219;-76
2023/01/29 12:11:53;;;;;;;;;35.67;29.33;;;;;-0.94;65.56;99156.19;4915981;28;102069;-76